Similk Beach, Washington
Current Conditions -  °F | °C
As of 5:56 AM on Tuesday 27 Jan 2015 (Local Time) from KNUW Reporting Station
Overcast Overcast  
Wind Chill: 51°   Ceiling: 2600
Heat Index: 51°   Visibility: 10mi
Dew Point: 46°   Wind: 3mph
Humidity: 83%   Direction: 130°SE
Pressure: 30"   Gusts: NA
Location:  48.4652°N, 122.617°W
Report Text: KNUW 271356Z 13003KT 10SM BKN026 OVC037 11/08 A3000 RMK AO2 SLP161 T01060078 VISNO E $
Loading
Personal Weather Stations






























Interactive Weather Map New forecast layout! Learn more

10-Day Weather Forecast

Advertisements
Track Severe Weather on mobile